createdAt,value
2024-03-05T00:00:14.279Z,813.00
2024-03-05T00:01:14.388Z,803.00
2024-03-05T00:02:14.418Z,805.00
2024-03-05T00:03:14.336Z,810.00
2024-03-05T00:04:14.430Z,802.00
2024-03-05T00:05:14.415Z,798.00
2024-03-05T00:06:14.425Z,803.00
2024-03-05T00:07:14.477Z,802.00
2024-03-05T00:08:14.474Z,810.00
2024-03-05T00:09:14.543Z,796.00
2024-03-05T00:10:14.810Z,807.00
2024-03-05T00:11:14.695Z,802.00
2024-03-05T00:12:14.834Z,806.00
2024-03-05T00:13:14.626Z,806.00
2024-03-05T00:14:14.635Z,809.00
2024-03-05T00:15:14.619Z,800.00
2024-03-05T00:16:14.679Z,797.00
2024-03-05T00:17:14.680Z,794.00
2024-03-05T00:18:14.707Z,802.00
2024-03-05T00:19:14.758Z,802.00
2024-03-05T00:20:14.773Z,800.00
2024-03-05T00:21:14.820Z,794.00
2024-03-05T00:22:14.869Z,802.00
2024-03-05T00:23:14.849Z,804.00
2024-03-05T00:24:14.838Z,796.00
2024-03-05T00:25:14.921Z,790.00
2024-03-05T00:26:14.912Z,791.00
2024-03-05T00:27:14.951Z,813.00
2024-03-05T00:28:14.992Z,810.00
2024-03-05T00:29:15.021Z,804.00
2024-03-05T00:30:15.496Z,797.00
2024-03-05T00:31:15.097Z,801.00
2024-03-05T00:32:15.115Z,805.00
2024-03-05T00:33:15.219Z,794.00
2024-03-05T00:34:15.212Z,794.00
2024-03-05T00:35:15.240Z,791.00
2024-03-05T00:36:15.236Z,792.00
2024-03-05T00:37:15.315Z,796.00
2024-03-05T00:38:22.186Z,801.00
2024-03-05T00:39:16.298Z,801.00
2024-03-05T00:40:15.342Z,802.00
2024-03-05T00:41:15.292Z,795.00
2024-03-05T00:42:15.326Z,798.00
2024-03-05T00:43:15.339Z,798.00
2024-03-05T00:44:15.337Z,782.00
2024-03-05T00:45:15.301Z,799.00
2024-03-05T00:46:15.335Z,793.00
2024-03-05T00:47:15.327Z,789.00
2024-03-05T00:48:15.319Z,794.00
2024-03-05T00:49:15.425Z,795.00
2024-03-05T00:50:15.418Z,788.00
2024-03-05T00:51:15.437Z,786.00
2024-03-05T00:52:15.507Z,791.00
2024-03-05T00:53:15.559Z,792.00
2024-03-05T00:54:15.671Z,793.00
2024-03-05T00:55:15.716Z,793.00
2024-03-05T00:56:15.776Z,792.00
2024-03-05T00:57:15.846Z,792.00
2024-03-05T00:58:15.873Z,794.00
2024-03-05T00:59:15.898Z,781.00
2024-03-05T01:00:15.972Z,778.00
2024-03-05T01:01:16.053Z,787.00
2024-03-05T01:02:16.110Z,794.00
2024-03-05T01:03:16.084Z,786.00
2024-03-05T01:04:16.108Z,787.00
2024-03-05T01:05:16.180Z,788.00
2024-03-05T01:06:16.201Z,794.00
2024-03-05T01:07:16.450Z,781.00
2024-03-05T01:08:16.218Z,795.00
2024-03-05T01:09:16.251Z,785.00
2024-03-05T01:10:16.310Z,787.00
2024-03-05T01:11:16.362Z,788.00
2024-03-05T01:12:16.329Z,788.00
2024-03-05T01:13:16.391Z,776.00
2024-03-05T01:14:16.351Z,786.00
2024-03-05T01:15:16.395Z,789.00
2024-03-05T01:16:16.464Z,786.00
2024-03-05T01:17:16.462Z,792.00
2024-03-05T01:18:16.459Z,781.00
2024-03-05T01:19:16.515Z,779.00
2024-03-05T01:20:16.503Z,779.00
2024-03-05T01:21:16.512Z,772.00
2024-03-05T01:22:16.677Z,777.00
2024-03-05T01:23:16.542Z,780.00
2024-03-05T01:24:16.531Z,788.00
2024-03-05T01:25:16.584Z,776.00
2024-03-05T01:26:16.601Z,786.00
2024-03-05T01:27:16.603Z,768.00
2024-03-05T01:28:16.667Z,782.00
2024-03-05T01:29:16.616Z,780.00
2024-03-05T01:30:16.616Z,773.00
2024-03-05T01:31:16.792Z,790.00
2024-03-05T01:32:16.685Z,775.00
2024-03-05T01:33:16.756Z,773.00
2024-03-05T01:34:16.734Z,782.00
2024-03-05T01:35:16.739Z,786.00
2024-03-05T01:36:16.796Z,780.00
2024-03-05T01:37:16.776Z,779.00
2024-03-05T01:38:16.775Z,778.00
2024-03-05T01:39:16.775Z,774.00
2024-03-05T01:40:16.830Z,778.00
2024-03-05T01:41:16.793Z,777.00
2024-03-05T01:42:16.808Z,779.00
2024-03-05T01:43:16.916Z,773.00
2024-03-05T01:44:16.901Z,782.00
2024-03-05T01:45:16.914Z,776.00
2024-03-05T01:46:17.002Z,782.00
2024-03-05T01:47:17.013Z,772.00
2024-03-05T01:48:17.017Z,777.00
2024-03-05T01:49:17.061Z,776.00
2024-03-05T01:50:17.031Z,775.00
2024-03-05T01:51:17.049Z,781.00
2024-03-05T01:52:17.130Z,773.00
2024-03-05T01:53:17.105Z,777.00
2024-03-05T01:54:17.198Z,763.00
2024-03-05T01:55:17.236Z,777.00
2024-03-05T01:56:17.177Z,776.00
2024-03-05T01:57:17.221Z,773.00
2024-03-05T01:58:17.255Z,773.00
2024-03-05T01:59:17.273Z,762.00
2024-03-05T02:00:17.316Z,766.00
2024-03-05T02:01:17.446Z,780.00
2024-03-05T02:02:17.385Z,773.00
2024-03-05T02:03:17.383Z,771.00
2024-03-05T02:04:17.414Z,758.00
2024-03-05T02:05:17.391Z,767.00
2024-03-05T02:06:17.423Z,776.00
2024-03-05T02:07:17.465Z,769.00
2024-03-05T02:08:19.065Z,772.00
2024-03-05T02:09:17.518Z,769.00
2024-03-05T02:10:17.592Z,777.00
2024-03-05T02:11:17.570Z,764.00
2024-03-05T02:12:17.630Z,776.00
2024-03-05T02:13:17.634Z,769.00
2024-03-05T02:14:17.669Z,766.00
2024-03-05T02:15:17.667Z,764.00
2024-03-05T02:16:17.710Z,760.00
2024-03-05T02:17:18.379Z,771.00
2024-03-05T02:18:17.733Z,770.00
2024-03-05T02:19:17.761Z,764.00
2024-03-05T02:20:17.778Z,759.00
2024-03-05T02:21:17.810Z,766.00
2024-03-05T02:22:17.872Z,761.00
2024-03-05T02:23:17.826Z,758.00
2024-03-05T02:24:17.844Z,758.00
2024-03-05T02:25:19.369Z,761.00
2024-03-05T02:26:17.909Z,760.00
2024-03-05T02:27:23.810Z,758.00
2024-03-05T02:28:18.984Z,759.00
2024-03-05T02:29:17.948Z,761.00
2024-03-05T02:30:17.948Z,762.00
2024-03-05T02:31:17.959Z,761.00
2024-03-05T02:32:17.945Z,768.00
2024-03-05T02:33:17.946Z,763.00
2024-03-05T02:34:17.999Z,767.00
2024-03-05T02:35:17.970Z,766.00
2024-03-05T02:36:17.956Z,767.00
2024-03-05T02:37:18.026Z,767.00
2024-03-05T02:38:17.964Z,768.00
2024-03-05T02:39:17.944Z,762.00
2024-03-05T02:40:18.017Z,758.00
2024-03-05T02:41:18.011Z,759.00
2024-03-05T02:42:18.044Z,753.00
2024-03-05T02:43:18.085Z,752.00
2024-03-05T02:44:18.018Z,765.00
2024-03-05T02:45:18.027Z,754.00
2024-03-05T02:46:18.067Z,760.00
2024-03-05T02:47:18.077Z,759.00
2024-03-05T02:48:18.024Z,755.00
2024-03-05T02:49:18.080Z,765.00
2024-03-05T02:50:18.050Z,746.00
2024-03-05T02:51:18.126Z,768.00
2024-03-05T02:52:18.164Z,752.00
2024-03-05T02:53:18.081Z,752.00
2024-03-05T02:54:18.064Z,757.00
2024-03-05T02:55:18.103Z,762.00
2024-03-05T02:56:18.070Z,761.00
2024-03-05T02:57:18.090Z,754.00
2024-03-05T02:58:18.138Z,744.00
2024-03-05T02:59:18.058Z,760.00
2024-03-05T03:00:18.068Z,747.00
2024-03-05T03:01:18.114Z,755.00
2024-03-05T03:02:18.096Z,761.00
2024-03-05T03:03:18.086Z,748.00
2024-03-05T03:04:18.142Z,752.00
2024-03-05T03:05:18.141Z,760.00
2024-03-05T03:06:18.156Z,746.00
2024-03-05T03:07:18.231Z,749.00
2024-03-05T03:08:18.169Z,748.00
2024-03-05T03:09:18.180Z,748.00
2024-03-05T03:10:18.194Z,760.00
2024-03-05T03:11:18.367Z,761.00
2024-03-05T03:12:18.224Z,752.00
2024-03-05T03:13:18.223Z,753.00
2024-03-05T03:14:18.224Z,748.00
2024-03-05T03:15:18.212Z,745.00
2024-03-05T03:16:18.240Z,760.00
2024-03-05T03:17:18.236Z,746.00
2024-03-05T03:18:18.317Z,747.00
2024-03-05T03:19:18.239Z,753.00
2024-03-05T03:20:18.259Z,749.00
2024-03-05T03:21:18.236Z,745.00
2024-03-05T03:22:18.307Z,747.00
2024-03-05T03:23:18.268Z,747.00
2024-03-05T03:24:18.265Z,745.00
2024-03-05T03:25:18.366Z,743.00
2024-03-05T03:26:18.307Z,738.00
2024-03-05T03:27:18.306Z,740.00
2024-03-05T03:28:18.401Z,748.00
2024-03-05T03:29:18.306Z,748.00
2024-03-05T03:30:18.330Z,748.00
2024-03-05T03:31:18.392Z,753.00
2024-03-05T03:32:18.337Z,745.00
2024-03-05T03:33:18.354Z,740.00
2024-03-05T03:34:18.499Z,745.00
2024-03-05T03:35:18.379Z,749.00
2024-03-05T03:36:18.393Z,742.00
2024-03-05T03:37:18.425Z,748.00
2024-03-05T03:38:18.428Z,738.00
2024-03-05T03:39:18.434Z,738.00
2024-03-05T03:40:18.545Z,741.00
2024-03-05T03:41:18.439Z,741.00
2024-03-05T03:42:18.468Z,744.00
2024-03-05T03:43:18.517Z,737.00
2024-03-05T03:44:18.478Z,746.00
2024-03-05T03:45:18.554Z,748.00
2024-03-05T03:46:18.510Z,737.00
2024-03-05T03:47:18.509Z,738.00
2024-03-05T03:48:18.515Z,748.00
2024-03-05T03:49:18.577Z,748.00
2024-03-05T03:50:18.531Z,745.00
2024-03-05T03:51:18.541Z,739.00
2024-03-05T03:52:18.577Z,744.00
2024-03-05T03:53:18.562Z,745.00
2024-03-05T03:54:18.605Z,734.00
2024-03-05T03:55:18.631Z,737.00
2024-03-05T03:56:18.623Z,746.00
2024-03-05T03:57:18.630Z,741.00
2024-03-05T03:58:18.666Z,745.00
2024-03-05T03:59:18.637Z,734.00
2024-03-05T04:00:19.210Z,743.00
2024-03-05T04:01:18.762Z,744.00
2024-03-05T04:02:18.662Z,733.00
2024-03-05T04:03:18.698Z,736.00
2024-03-05T04:04:18.707Z,737.00
2024-03-05T04:05:18.744Z,734.00
2024-03-05T04:06:18.684Z,737.00
2024-03-05T04:07:18.687Z,743.00
2024-03-05T04:08:18.694Z,739.00
2024-03-05T04:09:18.681Z,736.00
2024-03-05T04:10:18.765Z,732.00
2024-03-05T04:11:18.762Z,734.00
2024-03-05T04:12:18.723Z,747.00
2024-03-05T04:13:19.209Z,739.00
2024-03-05T04:14:19.007Z,737.00
2024-03-05T04:15:18.733Z,742.00
2024-03-05T04:16:18.760Z,738.00
2024-03-05T04:17:25.951Z,600.00
2024-03-05T04:18:25.920Z,600.00
2024-03-05T04:19:25.954Z,600.00
2024-03-05T04:20:25.948Z,600.00
2024-03-05T04:21:25.927Z,600.00
2024-03-05T04:22:25.937Z,602.00
2024-03-05T04:23:25.943Z,601.00
2024-03-05T04:24:25.929Z,601.00
2024-03-05T04:25:25.945Z,603.00
2024-03-05T04:26:25.946Z,601.00
2024-03-05T04:27:25.937Z,602.00
2024-03-05T04:28:25.957Z,603.00
2024-03-05T04:29:25.947Z,603.00
2024-03-05T04:30:25.923Z,606.00
2024-03-05T04:31:37.743Z,600.00
2024-03-05T04:32:34.216Z,600.00
2024-03-05T04:33:33.135Z,600.00
2024-03-05T04:34:33.244Z,600.00
2024-03-05T04:35:33.128Z,600.00
2024-03-05T04:36:33.098Z,600.00
2024-03-05T04:37:33.325Z,603.00
2024-03-05T04:38:33.117Z,600.00
2024-03-05T04:39:33.113Z,601.00
2024-03-05T04:40:33.170Z,602.00
2024-03-05T04:41:33.108Z,602.00
2024-03-05T04:42:33.257Z,603.00
2024-03-05T04:43:33.179Z,602.00
2024-03-05T04:44:33.241Z,603.00
2024-03-05T04:45:33.246Z,603.00
2024-03-05T04:46:33.358Z,606.00
2024-03-05T04:47:33.405Z,602.00
2024-03-05T04:48:33.423Z,602.00
2024-03-05T04:49:33.486Z,607.00
2024-03-05T04:50:33.533Z,604.00
2024-03-05T04:51:33.617Z,604.00
2024-03-05T04:52:33.695Z,603.00
2024-03-05T04:53:33.736Z,605.00
2024-03-05T04:54:33.773Z,602.00
2024-03-05T04:55:33.915Z,603.00
2024-03-05T04:56:33.892Z,607.00
2024-03-05T04:57:33.976Z,602.00
2024-03-05T04:58:34.084Z,604.00
2024-03-05T04:59:34.094Z,606.00
2024-03-05T05:00:34.123Z,602.00
2024-03-05T05:01:34.357Z,605.00
2024-03-05T05:02:34.258Z,606.00
2024-03-05T05:03:34.317Z,605.00
2024-03-05T05:04:34.406Z,604.00
2024-03-05T05:05:34.430Z,606.00
2024-03-05T05:06:34.523Z,602.00
2024-03-05T05:07:34.649Z,603.00
2024-03-05T05:08:34.647Z,607.00
2024-03-05T05:09:34.707Z,607.00
2024-03-05T05:10:34.820Z,608.00
2024-03-05T05:11:34.904Z,608.00
2024-03-05T05:12:34.915Z,607.00
2024-03-05T05:13:35.030Z,605.00
2024-03-05T05:14:38.705Z,604.00
2024-03-05T05:15:35.106Z,604.00
2024-03-05T05:16:35.063Z,604.00
2024-03-05T05:17:35.074Z,605.00
2024-03-05T05:18:35.088Z,604.00
2024-03-05T05:19:35.097Z,607.00
2024-03-05T05:20:35.077Z,606.00
2024-03-05T05:21:35.061Z,607.00
2024-03-05T05:22:35.189Z,602.00
2024-03-05T05:23:35.093Z,601.00
2024-03-05T05:24:35.087Z,604.00
2024-03-05T05:25:35.103Z,607.00
2024-03-05T05:26:35.085Z,606.00
2024-03-05T05:27:35.092Z,605.00
2024-03-05T05:28:35.160Z,607.00
2024-03-05T05:29:40.322Z,604.00
2024-03-05T05:30:36.107Z,604.00
2024-03-05T05:31:35.148Z,605.00
2024-03-05T05:32:35.110Z,605.00
2024-03-05T05:33:35.139Z,606.00
2024-03-05T05:34:35.152Z,606.00
2024-03-05T05:35:35.118Z,603.00
2024-03-05T05:36:35.145Z,604.00
2024-03-05T05:37:35.178Z,608.00
2024-03-05T05:38:35.258Z,605.00
2024-03-05T05:39:35.246Z,609.00
2024-03-05T05:40:35.339Z,608.00
2024-03-05T05:41:35.383Z,602.00
2024-03-05T05:42:35.466Z,605.00
2024-03-05T05:43:35.573Z,606.00
2024-03-05T05:44:35.593Z,604.00
2024-03-05T05:45:35.638Z,608.00
2024-03-05T05:46:35.782Z,602.00
2024-03-05T05:47:35.838Z,606.00
2024-03-05T05:48:35.902Z,604.00
2024-03-05T05:49:35.958Z,606.00
2024-03-05T05:50:35.972Z,606.00
2024-03-05T05:51:36.066Z,606.00
2024-03-05T05:52:36.133Z,604.00
2024-03-05T05:53:36.164Z,607.00
2024-03-05T05:54:36.239Z,606.00
2024-03-05T05:55:36.369Z,606.00
2024-03-05T05:56:36.384Z,607.00
2024-03-05T05:57:36.465Z,606.00
2024-03-05T05:58:36.637Z,603.00
2024-03-05T05:59:36.586Z,605.00
2024-03-05T06:00:37.640Z,604.00
2024-03-05T06:01:36.814Z,603.00
2024-03-05T06:02:36.876Z,604.00
2024-03-05T06:03:36.876Z,602.00
2024-03-05T06:04:36.965Z,601.00
2024-03-05T06:05:36.967Z,604.00
2024-03-05T06:06:37.042Z,602.00
2024-03-05T06:07:37.139Z,608.00
2024-03-05T06:08:37.190Z,606.00
2024-03-05T06:09:37.236Z,605.00
2024-03-05T06:10:37.376Z,606.00
2024-03-05T06:11:37.415Z,605.00
2024-03-05T06:12:37.442Z,608.00
2024-03-05T06:13:37.553Z,606.00
2024-03-05T06:14:37.582Z,605.00
2024-03-05T06:15:37.676Z,603.00
2024-03-05T06:16:37.762Z,603.00
2024-03-05T06:17:37.785Z,603.00
2024-03-05T06:18:37.821Z,605.00
2024-03-05T06:19:37.956Z,603.00
2024-03-05T06:20:37.960Z,602.00
2024-03-05T06:21:37.998Z,602.00
2024-03-05T06:22:38.083Z,602.00
2024-03-05T06:23:38.133Z,603.00
2024-03-05T06:24:38.210Z,600.00
2024-03-05T06:25:38.291Z,600.00
2024-03-05T06:26:38.373Z,602.00
2024-03-05T06:27:38.411Z,608.00
2024-03-05T06:28:38.485Z,603.00
2024-03-05T06:29:38.514Z,605.00
2024-03-05T06:30:38.595Z,601.00
2024-03-05T06:31:38.695Z,600.00
2024-03-05T06:32:38.698Z,603.00
2024-03-05T06:33:38.791Z,600.00
2024-03-05T06:34:38.841Z,603.00
2024-03-05T06:35:38.878Z,601.00
2024-03-05T06:36:38.948Z,603.00
2024-03-05T06:37:39.020Z,603.00
2024-03-05T06:38:39.065Z,624.00
2024-03-05T06:39:39.192Z,642.00
2024-03-05T06:40:39.204Z,652.00
2024-03-05T06:41:39.241Z,657.00
2024-03-05T06:42:39.321Z,664.00
2024-03-05T06:43:39.948Z,678.00
2024-03-05T06:44:39.342Z,702.00
2024-03-05T06:45:39.405Z,706.00
2024-03-05T06:46:39.495Z,727.00
2024-03-05T06:47:39.483Z,734.00
2024-03-05T06:48:39.636Z,732.00
2024-03-05T06:49:39.568Z,744.00
2024-03-05T06:50:39.623Z,750.00
2024-03-05T06:51:39.483Z,770.00
2024-03-05T06:52:39.609Z,778.00
2024-03-05T06:53:39.556Z,815.00
2024-03-05T06:54:39.588Z,822.00
2024-03-05T06:55:39.677Z,841.00
2024-03-05T06:56:39.606Z,879.00
2024-03-05T06:57:39.689Z,908.00
2024-03-05T06:58:39.815Z,939.00
2024-03-05T06:59:39.820Z,960.00
2024-03-05T07:00:41.918Z,977.00
2024-03-05T07:01:40.131Z,1006.00
2024-03-05T07:02:39.905Z,1022.00
2024-03-05T07:03:39.908Z,1059.00
2024-03-05T07:04:40.058Z,1066.00
2024-03-05T07:05:39.932Z,1099.00
2024-03-05T07:06:39.914Z,1110.00
2024-03-05T07:07:40.052Z,1141.00
2024-03-05T07:08:39.907Z,1171.00
2024-03-05T07:09:39.921Z,1179.00
2024-03-05T07:10:40.056Z,1218.00
2024-03-05T07:11:40.069Z,1234.00
2024-03-05T07:12:39.908Z,1257.00
2024-03-05T07:13:42.307Z,1263.00
2024-03-05T07:14:39.981Z,1265.00
2024-03-05T07:15:39.920Z,1273.00
2024-03-05T07:16:39.998Z,1296.00
2024-03-05T07:17:39.929Z,1332.00
2024-03-05T07:18:40.311Z,1402.00
2024-03-05T07:19:39.938Z,1438.00
2024-03-05T07:20:40.041Z,1451.00
2024-03-05T07:21:39.930Z,1485.00
2024-03-05T07:22:40.046Z,1507.00
2024-03-05T07:23:39.994Z,1528.00
2024-03-05T07:24:39.979Z,1548.00
2024-03-05T07:25:40.013Z,1579.00
2024-03-05T07:26:42.758Z,1600.00
2024-03-05T07:27:40.938Z,1602.00
2024-03-05T07:28:40.304Z,1609.00
2024-03-05T07:29:39.918Z,1625.00
2024-03-05T07:30:39.933Z,1658.00
2024-03-05T07:31:39.969Z,1706.00
2024-03-05T07:32:40.004Z,1735.00
2024-03-05T07:33:40.200Z,1752.00
2024-03-05T07:34:40.017Z,1764.00
2024-03-05T07:35:39.926Z,1776.00
2024-03-05T07:36:39.951Z,1793.00
2024-03-05T07:37:39.980Z,1782.00
2024-03-05T07:38:40.008Z,1756.00
2024-03-05T07:39:39.956Z,1724.00
2024-03-05T07:40:40.003Z,1684.00
2024-03-05T07:41:40.125Z,1625.00
2024-03-05T07:42:40.137Z,1537.00
2024-03-05T07:43:40.191Z,1575.00
2024-03-05T07:44:40.480Z,1549.00
2024-03-05T07:45:40.289Z,1515.00
2024-03-05T07:46:40.269Z,1482.00
2024-03-05T07:47:40.270Z,1453.00
2024-03-05T07:48:40.360Z,1383.00
2024-03-05T07:49:40.321Z,1370.00
2024-03-05T07:50:40.334Z,1339.00
2024-03-05T07:51:44.726Z,1324.00
2024-03-05T07:52:41.367Z,1311.00
2024-03-05T07:53:42.590Z,1286.00
2024-03-05T07:54:40.558Z,1267.00
2024-03-05T07:55:46.295Z,1198.00
2024-03-05T07:56:41.610Z,1206.00
2024-03-05T07:57:40.544Z,1191.00
2024-03-05T07:58:40.605Z,1157.00
2024-03-05T07:59:40.581Z,1137.00
2024-03-05T08:00:40.676Z,1109.00
2024-03-05T08:01:40.596Z,1097.00
2024-03-05T08:02:40.571Z,1081.00
2024-03-05T08:03:40.581Z,1075.00
2024-03-05T08:04:40.689Z,1066.00
2024-03-05T08:05:40.564Z,1058.00
2024-03-05T08:06:40.558Z,1055.00
2024-03-05T08:07:40.587Z,1025.00
2024-03-05T08:08:40.798Z,1017.00
2024-03-05T08:09:40.580Z,1011.00
2024-03-05T08:10:40.637Z,1003.00
2024-03-05T08:11:40.681Z,999.00
2024-03-05T08:12:40.573Z,987.00
2024-03-05T08:13:40.839Z,966.00
2024-03-05T08:14:40.569Z,918.00
2024-03-05T08:15:40.573Z,915.00
2024-03-05T08:16:41.189Z,867.00
2024-03-05T08:17:40.625Z,864.00
2024-03-05T08:18:40.815Z,834.00
2024-03-05T08:19:40.610Z,809.00
2024-03-05T08:20:40.644Z,823.00
2024-03-05T08:21:40.616Z,822.00
2024-03-05T08:22:40.678Z,806.00
2024-03-05T08:23:40.584Z,811.00
2024-03-05T08:24:40.659Z,752.00
2024-03-05T08:25:40.640Z,743.00
2024-03-05T08:26:40.593Z,738.00
2024-03-05T08:27:40.607Z,728.00
2024-03-05T08:28:40.665Z,704.00
2024-03-05T08:29:40.673Z,687.00
2024-03-05T08:30:40.657Z,672.00
2024-03-05T08:31:40.822Z,655.00
2024-03-05T08:32:40.742Z,648.00
2024-03-05T08:33:40.726Z,638.00
2024-03-05T08:34:40.767Z,633.00
2024-03-05T08:35:40.850Z,624.00
2024-03-05T08:36:40.962Z,621.00
2024-03-05T08:37:40.857Z,619.00
2024-03-05T08:38:40.849Z,618.00
2024-03-05T08:39:40.862Z,607.00
2024-03-05T08:40:40.909Z,603.00
2024-03-05T08:41:40.905Z,601.00
2024-03-05T08:42:40.921Z,599.00
2024-03-05T08:43:41.322Z,600.00
2024-03-05T08:44:40.920Z,603.00
2024-03-05T08:45:40.953Z,601.00
2024-03-05T08:46:40.955Z,602.00
2024-03-05T08:47:40.977Z,600.00
2024-03-05T08:48:40.994Z,600.00
2024-03-05T08:49:41.034Z,602.00
2024-03-05T08:50:41.321Z,602.00
2024-03-05T08:51:41.041Z,603.00
2024-03-05T08:52:41.219Z,601.00
2024-03-05T08:53:41.078Z,606.00
2024-03-05T08:54:41.086Z,607.00
2024-03-05T08:55:41.145Z,611.00
2024-03-05T08:56:41.134Z,610.00
2024-03-05T08:57:41.142Z,607.00
2024-03-05T08:58:41.164Z,611.00
2024-03-05T08:59:41.150Z,613.00
2024-03-05T09:00:43.445Z,617.00
2024-03-05T09:01:41.251Z,627.00
2024-03-05T09:02:41.151Z,625.00
2024-03-05T09:03:41.153Z,625.00
2024-03-05T09:04:41.202Z,624.00
2024-03-05T09:05:44.064Z,615.00
2024-03-05T09:06:42.151Z,615.00
2024-03-05T09:07:41.206Z,617.00
2024-03-05T09:08:41.166Z,621.00
2024-03-05T09:09:41.165Z,627.00
2024-03-05T09:10:41.468Z,638.00
2024-03-05T09:11:41.277Z,640.00
2024-03-05T09:12:41.182Z,646.00
2024-03-05T09:13:41.245Z,648.00
2024-03-05T09:14:41.165Z,655.00
2024-03-05T09:15:43.824Z,659.00
2024-03-05T09:16:41.259Z,670.00
2024-03-05T09:17:41.214Z,673.00
2024-03-05T09:18:41.337Z,682.00
2024-03-05T09:19:41.179Z,690.00
2024-03-05T09:20:41.222Z,696.00
2024-03-05T09:21:41.197Z,714.00
2024-03-05T09:22:41.256Z,703.00
2024-03-05T09:23:41.230Z,661.00
2024-03-05T09:24:41.190Z,661.00
2024-03-05T09:25:41.200Z,640.00
2024-03-05T09:26:41.206Z,624.00
2024-03-05T09:27:41.194Z,604.00
2024-03-05T09:28:41.386Z,598.00
2024-03-05T09:29:41.280Z,602.00
2024-03-05T09:30:41.218Z,600.00
2024-03-05T09:31:41.254Z,601.00
2024-03-05T09:32:41.857Z,600.00
2024-03-05T09:33:41.218Z,600.00
2024-03-05T09:34:41.277Z,602.00
2024-03-05T09:35:41.359Z,600.00
2024-03-05T09:36:42.863Z,599.00
2024-03-05T09:37:41.270Z,600.00
2024-03-05T09:38:41.846Z,601.00
2024-03-05T09:39:41.216Z,602.00
2024-03-05T09:40:41.234Z,600.00
2024-03-05T09:41:41.244Z,606.00
2024-03-05T09:42:41.231Z,609.00
2024-03-05T09:43:41.263Z,604.00
2024-03-05T09:44:41.224Z,616.00
2024-03-05T09:45:41.249Z,618.00
2024-03-05T09:46:41.252Z,612.00
2024-03-05T09:47:41.277Z,619.00
2024-03-05T09:48:41.247Z,623.00
2024-03-05T09:49:41.253Z,622.00
2024-03-05T09:50:41.236Z,626.00
2024-03-05T09:51:41.247Z,621.00
2024-03-05T09:52:41.330Z,630.00
2024-03-05T09:53:41.354Z,640.00
2024-03-05T09:54:41.236Z,645.00
2024-03-05T09:55:41.272Z,649.00
2024-03-05T09:56:41.238Z,651.00
2024-03-05T09:57:41.251Z,652.00
2024-03-05T09:58:41.395Z,659.00
2024-03-05T09:59:41.291Z,656.00
2024-03-05T10:00:41.260Z,650.00
2024-03-05T10:01:41.375Z,657.00
2024-03-05T10:02:41.390Z,657.00
2024-03-05T10:03:41.322Z,666.00
2024-03-05T10:04:41.349Z,672.00
2024-03-05T10:05:41.316Z,663.00
2024-03-05T10:06:41.402Z,669.00
2024-03-05T10:07:41.456Z,679.00
2024-03-05T10:08:41.464Z,682.00
2024-03-05T10:09:41.470Z,664.00
2024-03-05T10:10:41.620Z,689.00
2024-03-05T10:11:41.597Z,678.00
2024-03-05T10:12:41.493Z,664.00
2024-03-05T10:13:41.881Z,679.00
2024-03-05T10:14:42.399Z,678.00
2024-03-05T10:15:41.475Z,681.00
2024-03-05T10:16:41.571Z,702.00
2024-03-05T10:17:41.565Z,710.00
2024-03-05T10:18:42.417Z,742.00
2024-03-05T10:19:41.627Z,749.00
2024-03-05T10:20:41.517Z,756.00
2024-03-05T10:21:41.525Z,776.00
2024-03-05T10:22:41.592Z,791.00
2024-03-05T10:23:41.571Z,787.00
2024-03-05T10:24:41.678Z,795.00
2024-03-05T10:25:41.907Z,792.00
2024-03-05T10:26:41.629Z,797.00
2024-03-05T10:27:41.733Z,789.00
2024-03-05T10:28:41.867Z,780.00
2024-03-05T10:29:41.703Z,767.00
2024-03-05T10:30:41.712Z,793.00
2024-03-05T10:31:41.784Z,805.00
2024-03-05T10:32:41.720Z,805.00
2024-03-05T10:33:41.762Z,789.00
2024-03-05T10:34:41.813Z,790.00
2024-03-05T10:35:42.055Z,781.00
2024-03-05T10:36:41.836Z,765.00
2024-03-05T10:37:41.919Z,754.00
2024-03-05T10:39:41.871Z,781.00
2024-03-05T10:40:41.933Z,764.00
2024-03-05T10:41:47.445Z,762.00
2024-03-05T10:42:42.895Z,763.00
2024-03-05T10:43:42.000Z,763.00
2024-03-05T10:44:41.905Z,743.00
2024-03-05T10:45:42.641Z,740.00
2024-03-05T10:46:41.928Z,754.00
2024-03-05T10:47:41.917Z,732.00
2024-03-05T10:48:42.371Z,733.00
2024-03-05T10:49:42.018Z,737.00
2024-03-05T10:50:42.390Z,738.00
2024-03-05T10:51:41.875Z,732.00
2024-03-05T10:52:41.929Z,737.00
2024-03-05T10:53:42.362Z,742.00
2024-03-05T10:54:41.872Z,737.00
2024-03-05T10:55:42.438Z,743.00
2024-03-05T10:56:44.779Z,741.00
2024-03-05T10:57:41.903Z,748.00
2024-03-05T10:58:41.950Z,741.00
2024-03-05T10:59:41.897Z,732.00
2024-03-05T11:00:41.988Z,729.00
2024-03-05T11:01:42.586Z,722.00
2024-03-05T11:02:41.914Z,715.00
2024-03-05T11:03:41.966Z,712.00
2024-03-05T11:04:41.999Z,704.00
2024-03-05T11:05:41.892Z,691.00
2024-03-05T11:06:41.897Z,690.00
2024-03-05T11:07:42.011Z,671.00
2024-03-05T11:08:41.913Z,672.00
2024-03-05T11:09:41.909Z,692.00
2024-03-05T11:10:41.967Z,695.00
2024-03-05T11:11:41.933Z,685.00
2024-03-05T11:12:41.903Z,683.00
2024-03-05T11:13:42.131Z,693.00
2024-03-05T11:14:41.917Z,705.00
2024-03-05T11:15:42.000Z,718.00
2024-03-05T11:16:41.946Z,717.00
2024-03-05T11:17:41.956Z,732.00
2024-03-05T11:18:41.927Z,732.00
2024-03-05T11:19:41.961Z,733.00
2024-03-05T11:20:41.966Z,748.00
2024-03-05T11:21:41.954Z,749.00
2024-03-05T11:22:41.958Z,758.00
2024-03-05T11:23:41.994Z,777.00
2024-03-05T11:24:41.947Z,779.00
2024-03-05T11:25:41.950Z,781.00
2024-03-05T11:26:41.929Z,798.00
2024-03-05T11:27:41.940Z,789.00
2024-03-05T11:28:41.989Z,796.00
2024-03-05T11:29:41.964Z,796.00
2024-03-05T11:30:42.027Z,790.00
2024-03-05T11:31:42.121Z,797.00
2024-03-05T11:32:42.202Z,808.00
2024-03-05T11:33:42.259Z,802.00
2024-03-05T11:34:42.421Z,818.00
2024-03-05T11:35:42.355Z,814.00
2024-03-05T11:36:42.440Z,829.00
2024-03-05T11:37:42.473Z,823.00
2024-03-05T11:38:42.555Z,831.00
2024-03-05T11:39:42.620Z,844.00
2024-03-05T11:40:42.716Z,841.00
2024-03-05T11:41:42.875Z,849.00
2024-03-05T11:42:42.807Z,844.00
2024-03-05T11:43:42.950Z,854.00
2024-03-05T11:44:43.034Z,850.00
2024-03-05T11:45:43.086Z,856.00
2024-03-05T11:46:43.151Z,857.00
2024-03-05T11:47:43.208Z,868.00
2024-03-05T11:48:43.198Z,864.00
2024-03-05T11:49:43.340Z,859.00
2024-03-05T11:50:43.356Z,872.00
2024-03-05T11:51:43.407Z,861.00
2024-03-05T11:52:43.538Z,872.00
2024-03-05T11:53:43.553Z,873.00
2024-03-05T11:54:43.611Z,855.00
2024-03-05T11:55:43.823Z,869.00
2024-03-05T11:56:43.752Z,871.00
2024-03-05T11:57:43.805Z,876.00
2024-03-05T11:58:43.901Z,876.00
2024-03-05T11:59:43.982Z,877.00
2024-03-05T12:00:43.970Z,874.00
2024-03-05T12:01:44.400Z,875.00
2024-03-05T12:02:44.212Z,886.00
2024-03-05T12:03:44.111Z,888.00
2024-03-05T12:04:44.347Z,887.00
2024-03-05T12:05:44.184Z,884.00
2024-03-05T12:06:44.254Z,895.00
2024-03-05T12:07:44.302Z,883.00
2024-03-05T12:08:44.331Z,889.00
2024-03-05T12:09:44.429Z,895.00
2024-03-05T12:10:44.504Z,892.00
2024-03-05T12:11:44.450Z,894.00
2024-03-05T12:12:44.518Z,900.00
2024-03-05T12:13:44.539Z,893.00
2024-03-05T12:14:44.522Z,893.00
2024-03-05T12:15:44.561Z,899.00
2024-03-05T12:16:44.643Z,893.00
2024-03-05T12:17:44.641Z,902.00
2024-03-05T12:18:44.626Z,902.00
2024-03-05T12:19:44.674Z,889.00
2024-03-05T12:20:44.681Z,888.00
2024-03-05T12:21:44.625Z,897.00
2024-03-05T12:22:44.668Z,902.00
2024-03-05T12:23:44.672Z,897.00
2024-03-05T12:24:44.712Z,912.00
2024-03-05T12:25:44.644Z,899.00
2024-03-05T12:26:44.619Z,901.00
2024-03-05T12:27:44.624Z,896.00